createdAt,value
2023-01-17T00:02:21.093Z,99618.60
2023-01-17T00:05:09.511Z,99616.17
2023-01-17T00:07:57.883Z,99611.64
2023-01-17T00:10:29.234Z,99604.41
2023-01-17T00:13:00.532Z,99600.05
2023-01-17T00:15:31.763Z,99592.13
2023-01-17T00:18:02.577Z,99584.08
2023-01-17T00:20:50.862Z,99583.16
2023-01-17T00:23:39.227Z,99585.94
2023-01-17T00:26:11.383Z,99579.07
2023-01-17T00:28:41.315Z,99577.73
2023-01-17T00:31:11.637Z,99568.75
2023-01-17T00:33:41.097Z,99577.21
2023-01-17T00:36:11.003Z,99580.70
2023-01-17T00:38:40.541Z,99578.55
2023-01-17T00:41:10.335Z,99576.77
2023-01-17T00:43:58.715Z,99576.77
2023-01-17T00:46:47.067Z,99582.85
2023-01-17T00:49:35.318Z,99581.38
2023-01-17T00:52:23.338Z,99581.39
2023-01-17T00:55:11.420Z,99585.73
2023-01-17T00:57:59.638Z,99581.69
2023-01-17T01:00:47.784Z,99577.34
2023-01-17T01:03:36.082Z,99566.13
2023-01-17T01:06:24.697Z,99560.80
2023-01-17T01:09:12.989Z,99564.77
2023-01-17T01:12:01.157Z,99570.87
2023-01-17T01:14:49.662Z,99560.48
2023-01-17T01:17:37.842Z,99561.58
2023-01-17T01:20:26.106Z,99555.21
2023-01-17T01:23:14.499Z,99537.81
2023-01-17T01:26:02.820Z,99536.64
2023-01-17T01:28:50.960Z,99549.28
2023-01-17T01:31:40.238Z,99538.23
2023-01-17T01:34:11.009Z,99528.26
2023-01-17T01:36:41.844Z,99529.04
2023-01-17T01:39:12.416Z,99529.76
2023-01-17T01:41:43.213Z,99526.28
2023-01-17T01:44:31.043Z,99529.48
2023-01-17T01:47:01.766Z,99528.56
2023-01-17T01:49:32.455Z,99536.16
2023-01-17T01:52:03.050Z,99536.35
2023-01-17T01:54:34.796Z,99536.21
2023-01-17T01:57:05.375Z,99535.45
2023-01-17T01:59:36.067Z,99522.47
2023-01-17T02:02:06.891Z,99516.81
2023-01-17T02:04:37.532Z,99524.59
2023-01-17T02:07:10.381Z,99524.41
2023-01-17T02:09:41.083Z,99507.63
2023-01-17T02:12:11.746Z,99496.96
2023-01-17T02:14:42.586Z,99483.30
2023-01-17T02:17:16.735Z,99475.61
2023-01-17T02:20:06.653Z,99469.19
2023-01-17T02:22:56.728Z,99467.60
2023-01-17T02:25:36.690Z,99470.39
2023-01-17T02:28:12.360Z,99469.86
2023-01-17T02:30:43.958Z,99475.34
2023-01-17T02:33:18.484Z,99477.31
2023-01-17T02:35:52.809Z,99477.04
2023-01-17T02:38:28.461Z,99482.90
2023-01-17T02:40:59.335Z,99489.21
2023-01-17T02:43:30.233Z,99485.30
2023-01-17T02:46:01.024Z,99474.27
2023-01-17T02:48:33.012Z,99482.15
2023-01-17T02:51:20.063Z,99483.89
2023-01-17T02:53:54.762Z,99480.69
2023-01-17T02:56:28.573Z,99470.03
2023-01-17T02:59:06.043Z,99467.70
2023-01-17T03:01:39.132Z,99468.61
2023-01-17T03:04:10.697Z,99462.70
2023-01-17T03:06:42.768Z,99464.61
2023-01-17T03:09:13.420Z,99469.25
2023-01-17T03:11:44.661Z,99446.08
2023-01-17T03:14:15.294Z,99429.81
2023-01-17T03:16:46.073Z,99449.75
2023-01-17T03:19:16.761Z,99468.56
2023-01-17T03:21:47.401Z,99479.61
2023-01-17T03:24:18.155Z,99479.29
2023-01-17T03:26:48.889Z,99481.99
2023-01-17T03:29:19.645Z,99466.96
2023-01-17T03:31:50.271Z,99466.77
2023-01-17T03:34:21.037Z,99457.30
2023-01-17T03:36:51.797Z,99457.85
2023-01-17T03:39:22.530Z,99454.23
2023-01-17T03:41:53.103Z,99445.14
2023-01-17T03:44:23.924Z,99440.64
2023-01-17T03:46:54.626Z,99437.98
2023-01-17T03:49:25.446Z,99439.80
2023-01-17T03:51:56.273Z,99443.40
2023-01-17T03:54:26.989Z,99443.92
2023-01-17T03:56:57.730Z,99439.90
2023-01-17T03:59:28.391Z,99438.60
2023-01-17T04:01:59.133Z,99437.75
2023-01-17T04:04:29.896Z,99438.89
2023-01-17T04:07:00.797Z,99442.21
2023-01-17T04:09:34.157Z,99443.75
2023-01-17T04:12:04.971Z,99444.71
2023-01-17T04:14:36.207Z,99437.23
2023-01-17T04:17:07.100Z,99438.80
2023-01-17T04:19:38.413Z,99434.95
2023-01-17T04:22:10.463Z,99439.27
2023-01-17T04:24:41.229Z,99433.79
2023-01-17T04:27:14.339Z,99430.08
2023-01-17T04:29:46.748Z,99423.44
2023-01-17T04:32:17.527Z,99410.95
2023-01-17T04:34:48.475Z,99414.59
2023-01-17T04:37:19.426Z,99414.98
2023-01-17T04:39:50.177Z,99423.26
2023-01-17T04:42:21.218Z,99427.77
2023-01-17T04:44:54.710Z,99436.48
2023-01-17T04:47:25.294Z,99435.92
2023-01-17T04:49:56.628Z,99432.11
2023-01-17T04:52:27.479Z,99430.74
2023-01-17T04:54:58.731Z,99431.52
2023-01-17T04:57:29.579Z,99426.88
2023-01-17T05:00:01.247Z,99429.06
2023-01-17T05:02:32.000Z,99427.14
2023-01-17T05:05:03.080Z,99428.90
2023-01-17T05:07:35.827Z,99429.98
2023-01-17T05:10:07.553Z,99434.27
2023-01-17T05:12:38.281Z,99435.96
2023-01-17T05:15:10.032Z,99445.53
2023-01-17T05:17:40.695Z,99446.20
2023-01-17T05:20:13.286Z,99451.90
2023-01-17T05:22:43.909Z,99465.70
2023-01-17T05:25:14.897Z,99465.27
2023-01-17T05:27:47.175Z,99469.31
2023-01-17T05:30:18.544Z,99475.30
2023-01-17T05:32:50.945Z,99483.56
2023-01-17T05:35:22.646Z,99490.25
2023-01-17T05:37:54.791Z,99501.27
2023-01-17T05:40:27.189Z,99510.97
2023-01-17T05:42:59.565Z,99516.37
2023-01-17T05:45:32.244Z,99511.27
2023-01-17T05:48:04.882Z,99514.95
2023-01-17T05:50:37.849Z,99523.86
2023-01-17T05:53:09.823Z,99530.76
2023-01-17T05:55:41.237Z,99540.11
2023-01-17T05:58:15.845Z,99535.35
2023-01-17T06:00:47.865Z,99532.81
2023-01-17T06:03:20.578Z,99526.84
2023-01-17T06:05:52.235Z,99532.61
2023-01-17T06:08:23.611Z,99534.73
2023-01-17T06:10:55.219Z,99544.77
2023-01-17T06:13:27.482Z,99544.08
2023-01-17T06:16:03.258Z,99551.63
2023-01-17T06:18:34.589Z,99555.73
2023-01-17T06:21:06.285Z,99551.38
2023-01-17T06:23:37.795Z,99548.88
2023-01-17T06:26:10.254Z,99543.70
2023-01-17T06:28:42.483Z,99538.65
2023-01-17T06:31:14.863Z,99539.43
2023-01-17T06:33:46.820Z,99535.27
2023-01-17T06:42:36.766Z,99514.84
2023-01-17T06:45:09.402Z,99509.70
2023-01-17T06:47:41.148Z,99504.33
2023-01-17T06:50:13.794Z,99506.30
2023-01-17T06:52:44.786Z,99497.94
2023-01-17T06:55:15.625Z,99500.50
2023-01-17T06:57:46.596Z,99501.02
2023-01-17T07:00:18.339Z,99497.43
2023-01-17T07:02:51.513Z,99507.81
2023-01-17T07:05:22.593Z,99507.01
2023-01-17T07:07:53.710Z,99516.38
2023-01-17T07:10:24.704Z,99514.36
2023-01-17T07:13:01.165Z,99520.05
2023-01-17T07:15:31.975Z,99510.13
2023-01-17T07:18:03.908Z,99513.44
2023-01-17T07:20:34.968Z,99509.06
2023-01-17T07:23:06.347Z,99517.66
2023-01-17T07:25:37.146Z,99528.42
2023-01-17T07:28:08.148Z,99531.06
2023-01-17T07:30:39.018Z,99531.08
2023-01-17T07:33:09.876Z,99532.95
2023-01-17T07:35:40.965Z,99536.20
2023-01-17T07:38:12.930Z,99547.54
2023-01-17T07:40:43.794Z,99545.99
2023-01-17T07:43:14.839Z,99538.63
2023-01-17T07:45:46.516Z,99527.77
2023-01-17T07:48:17.330Z,99525.90
2023-01-17T07:50:49.836Z,99517.46
2023-01-17T07:53:21.357Z,99516.68
2023-01-17T07:55:52.340Z,99517.90
2023-01-17T07:58:23.290Z,99514.59
2023-01-17T08:00:54.064Z,99522.88
2023-01-17T08:03:24.945Z,99519.21
2023-01-17T08:05:57.789Z,99522.95
2023-01-17T08:08:28.871Z,99518.52
2023-01-17T08:10:59.613Z,99516.45
2023-01-17T08:13:31.296Z,99512.73
2023-01-17T08:16:03.540Z,99513.29
2023-01-17T08:18:34.492Z,99512.45
2023-01-17T08:21:05.310Z,99504.80
2023-01-17T08:23:36.105Z,99508.77
2023-01-17T08:26:06.914Z,99512.09
2023-01-17T08:28:37.849Z,99510.77
2023-01-17T08:31:09.348Z,99514.48
2023-01-17T08:33:40.296Z,99522.31
2023-01-17T08:36:11.044Z,99527.98
2023-01-17T08:38:41.775Z,99541.98
2023-01-17T08:41:13.133Z,99550.80
2023-01-17T08:43:44.075Z,99552.06
2023-01-17T08:46:14.834Z,99543.76
2023-01-17T08:48:45.704Z,99543.63
2023-01-17T08:51:16.505Z,99536.48
2023-01-17T08:53:48.754Z,99537.42
2023-01-17T08:56:19.508Z,99534.13
2023-01-17T08:58:50.236Z,99529.14
2023-01-17T09:01:21.168Z,99530.12
2023-01-17T09:03:52.559Z,99523.23
2023-01-17T09:06:23.382Z,99506.54
2023-01-17T09:08:55.300Z,99491.89
2023-01-17T09:11:25.979Z,99491.10
2023-01-17T09:13:56.818Z,99483.63
2023-01-17T09:16:27.643Z,99477.99
2023-01-17T09:18:58.657Z,99477.38
2023-01-17T09:21:29.293Z,99478.62
2023-01-17T09:24:00.148Z,99484.20
2023-01-17T09:26:31.113Z,99486.01
2023-01-17T09:29:01.994Z,99487.16
2023-01-17T09:31:32.742Z,99479.14
2023-01-17T09:34:03.668Z,99477.99
2023-01-17T09:36:34.892Z,99480.28
2023-01-17T09:39:05.833Z,99485.80
2023-01-17T09:41:36.981Z,99483.54
2023-01-17T09:44:09.078Z,99482.72
2023-01-17T09:46:40.463Z,99480.93
2023-01-17T09:49:13.524Z,99478.38
2023-01-17T09:51:45.161Z,99474.48
2023-01-17T09:54:19.595Z,99476.91
2023-01-17T09:56:53.191Z,99473.09
2023-01-17T09:59:33.072Z,99463.58
2023-01-17T10:02:11.279Z,99459.40
2023-01-17T10:04:51.700Z,99461.48
2023-01-17T10:07:24.891Z,99466.85
2023-01-17T10:10:05.970Z,99463.64
2023-01-17T10:12:39.104Z,99458.52
2023-01-17T10:21:21.171Z,99461.17
2023-01-17T10:23:59.526Z,99464.88
2023-01-17T10:26:30.356Z,99464.15
2023-01-17T10:29:02.406Z,99457.57
2023-01-17T10:31:35.492Z,99450.41
2023-01-17T10:34:07.491Z,99436.65
2023-01-17T10:36:39.427Z,99437.45
2023-01-17T10:39:15.449Z,99436.09
2023-01-17T10:41:46.759Z,99433.55
2023-01-17T10:44:22.847Z,99431.73
2023-01-17T10:46:56.220Z,99421.99
2023-01-17T10:49:28.073Z,99418.20
2023-01-17T10:52:08.556Z,99415.58
2023-01-17T10:54:51.515Z,99407.13
2023-01-17T10:57:22.811Z,99407.19
2023-01-17T10:59:53.752Z,99409.29
2023-01-17T11:02:25.802Z,99411.93
2023-01-17T11:04:57.394Z,99406.89
2023-01-17T11:07:29.421Z,99410.52
2023-01-17T11:10:00.306Z,99404.37
2023-01-17T11:12:31.818Z,99408.96
2023-01-17T11:15:07.243Z,99403.98
2023-01-17T11:17:38.403Z,99397.14
2023-01-17T11:20:15.723Z,99396.91
2023-01-17T11:22:47.587Z,99405.69
2023-01-17T11:25:23.495Z,99401.13
2023-01-17T11:28:01.886Z,99400.79
2023-01-17T11:30:32.804Z,99393.60
2023-01-17T11:33:06.443Z,99394.23
2023-01-17T11:35:37.391Z,99398.27
2023-01-17T11:38:13.428Z,99401.23
2023-01-17T11:40:44.425Z,99395.39
2023-01-17T11:43:23.050Z,99390.38
2023-01-17T11:46:04.751Z,99389.38
2023-01-17T11:48:37.313Z,99389.13
2023-01-17T11:51:15.998Z,99387.05
2023-01-17T11:53:48.625Z,99380.96
2023-01-17T11:56:22.415Z,99376.60
2023-01-17T11:58:53.182Z,99370.29
2023-01-17T12:01:27.821Z,99370.28
2023-01-17T12:04:09.757Z,99375.91
2023-01-17T12:06:56.846Z,99372.66
2023-01-17T12:09:31.233Z,99376.58
2023-01-17T12:12:21.638Z,99372.80
2023-01-17T12:14:56.101Z,99372.05
2023-01-17T12:17:30.868Z,99370.04
2023-01-17T12:20:05.090Z,99369.65
2023-01-17T12:22:42.411Z,99368.56
2023-01-17T12:25:18.133Z,99365.94
2023-01-17T12:27:50.832Z,99365.19
2023-01-17T12:30:25.206Z,99361.91
2023-01-17T12:33:05.477Z,99361.61
2023-01-17T12:35:38.862Z,99361.54
2023-01-17T12:38:18.095Z,99362.65
2023-01-17T12:40:56.951Z,99356.56
2023-01-17T12:43:29.693Z,99356.96
2023-01-17T12:46:03.331Z,99362.17
2023-01-17T12:48:35.730Z,99364.35
2023-01-17T12:51:07.381Z,99362.19
2023-01-17T12:53:39.450Z,99360.36
2023-01-17T12:56:12.767Z,99354.73
2023-01-17T12:58:44.884Z,99353.58
2023-01-17T13:01:18.867Z,99360.52
2023-01-17T13:03:53.084Z,99360.23
2023-01-17T13:06:26.292Z,99365.33
2023-01-17T13:08:58.153Z,99363.95
2023-01-17T13:11:33.729Z,99362.87
2023-01-17T13:14:06.957Z,99367.94
2023-01-17T13:16:40.644Z,99369.67
2023-01-17T13:19:15.722Z,99369.91
2023-01-17T13:21:46.531Z,99374.48
2023-01-17T13:24:33.958Z,99381.92
2023-01-17T13:27:09.111Z,99386.29
2023-01-17T13:29:41.946Z,99390.68
2023-01-17T13:32:16.591Z,99390.05
2023-01-17T13:34:53.298Z,99390.80
2023-01-17T13:37:31.554Z,99390.05
2023-01-17T13:40:09.424Z,99393.23
2023-01-17T13:42:43.668Z,99395.13
2023-01-17T13:45:19.625Z,99399.95
2023-01-17T13:47:50.691Z,99393.52
2023-01-17T13:50:34.911Z,99393.39
2023-01-17T13:53:19.804Z,99401.38
2023-01-17T13:55:53.444Z,99402.52
2023-01-17T13:58:30.404Z,99403.79
2023-01-17T14:01:01.119Z,99397.92
2023-01-17T14:04:01.089Z,99393.23
2023-01-17T14:06:35.002Z,99392.15
2023-01-17T14:09:07.457Z,99391.62
2023-01-17T14:11:38.435Z,99385.69
2023-01-17T14:14:26.721Z,99384.19
2023-01-17T14:16:57.561Z,99389.56
2023-01-17T14:19:30.751Z,99392.11
2023-01-17T14:22:14.943Z,99398.23
2023-01-17T14:24:59.532Z,99402.73
2023-01-17T14:27:32.041Z,99411.73
2023-01-17T14:30:02.772Z,99415.27
2023-01-17T14:32:34.404Z,99410.85
2023-01-17T14:35:05.594Z,99408.41
2023-01-17T14:37:39.332Z,99410.73
2023-01-17T14:40:17.801Z,99414.83
2023-01-17T14:42:48.962Z,99424.36
2023-01-17T14:45:23.318Z,99424.59
2023-01-17T14:47:54.052Z,99430.64
2023-01-17T14:50:26.059Z,99434.91
2023-01-17T14:53:09.532Z,99440.48
2023-01-17T14:55:40.475Z,99441.73
2023-01-17T14:58:18.037Z,99443.48
2023-01-17T15:00:50.114Z,99441.90
2023-01-17T15:03:21.213Z,99445.98
2023-01-17T15:05:52.752Z,99447.27
2023-01-17T15:08:23.759Z,99455.58
2023-01-17T15:10:55.043Z,99457.02
2023-01-17T15:13:43.079Z,99460.23
2023-01-17T15:16:24.822Z,99458.80
2023-01-17T15:18:56.193Z,99457.04
2023-01-17T15:21:28.032Z,99455.84
2023-01-17T15:23:59.272Z,99449.33
2023-01-17T15:26:30.831Z,99449.45
2023-01-17T15:29:03.595Z,99446.64
2023-01-17T15:31:41.937Z,99446.63
2023-01-17T15:34:16.960Z,99445.02
2023-01-17T15:36:49.009Z,99444.69
2023-01-17T15:39:22.245Z,99447.16
2023-01-17T15:41:53.827Z,99445.30
2023-01-17T15:44:25.226Z,99450.14
2023-01-17T15:46:56.321Z,99451.11
2023-01-17T15:49:29.117Z,99451.17
2023-01-17T15:52:14.776Z,99455.82
2023-01-17T15:54:48.074Z,99452.08
2023-01-17T15:57:22.865Z,99446.02
2023-01-17T16:00:05.691Z,99442.94
2023-01-17T16:02:43.815Z,99443.89
2023-01-17T16:05:43.727Z,99447.52
2023-01-17T16:08:35.886Z,99453.70
2023-01-17T16:11:09.666Z,99454.34
2023-01-17T16:13:42.565Z,99454.20
2023-01-17T16:16:17.880Z,99451.13
2023-01-17T16:18:49.013Z,99448.82
2023-01-17T16:21:20.994Z,99449.90
2023-01-17T16:23:52.388Z,99448.25
2023-01-17T16:26:23.335Z,99450.59
2023-01-17T16:28:54.483Z,99450.63
2023-01-17T16:31:25.396Z,99450.98
2023-01-17T16:33:56.435Z,99448.99
2023-01-17T16:36:27.252Z,99452.35
2023-01-17T16:38:58.257Z,99455.33
2023-01-17T16:41:29.980Z,99449.97
2023-01-17T16:44:02.536Z,99447.28
2023-01-17T16:46:38.250Z,99451.32
2023-01-17T16:49:09.800Z,99454.55
2023-01-17T16:51:40.553Z,99456.15
2023-01-17T16:54:11.488Z,99466.80
2023-01-17T16:56:42.256Z,99473.84
2023-01-17T16:59:13.169Z,99468.70
2023-01-17T17:01:44.215Z,99470.73
2023-01-17T17:04:15.125Z,99470.89
2023-01-17T17:06:46.275Z,99474.59
2023-01-17T17:09:17.102Z,99467.86
2023-01-17T17:11:47.885Z,99464.66
2023-01-17T17:14:18.825Z,99460.25
2023-01-17T17:16:52.086Z,99454.12
2023-01-17T17:19:22.995Z,99448.28
2023-01-17T17:21:53.810Z,99450.33
2023-01-17T17:24:24.712Z,99457.77
2023-01-17T17:26:55.522Z,99465.27
2023-01-17T17:29:26.304Z,99472.21
2023-01-17T17:31:57.063Z,99471.56
2023-01-17T17:34:30.972Z,99468.77
2023-01-17T17:37:03.723Z,99462.82
2023-01-17T17:39:35.266Z,99458.40
2023-01-17T17:42:06.613Z,99459.62
2023-01-17T17:44:37.672Z,99459.34
2023-01-17T17:47:08.274Z,99460.18
2023-01-17T17:49:39.653Z,99458.91
2023-01-17T17:52:10.560Z,99457.58
2023-01-17T17:54:42.262Z,99451.08
2023-01-17T17:57:12.999Z,99446.55
2023-01-17T17:59:43.808Z,99445.45
2023-01-17T18:02:14.648Z,99442.77
2023-01-17T18:04:45.431Z,99437.66
2023-01-17T18:07:16.222Z,99436.38
2023-01-17T18:09:47.399Z,99432.96
2023-01-17T18:12:18.076Z,99427.63
2023-01-17T18:14:48.799Z,99424.20
2023-01-17T18:17:20.498Z,99420.20
2023-01-17T18:19:51.283Z,99408.64
2023-01-17T18:22:22.116Z,99403.81
2023-01-17T18:24:52.958Z,99397.73
2023-01-17T18:27:23.809Z,99391.40
2023-01-17T18:29:54.624Z,99396.94
2023-01-17T18:32:25.469Z,99399.02
2023-01-17T18:34:56.323Z,99399.70
2023-01-17T18:37:27.315Z,99394.12
2023-01-17T18:39:58.348Z,99387.78
2023-01-17T18:42:29.172Z,99387.45
2023-01-17T18:45:00.027Z,99381.73
2023-01-17T18:47:31.679Z,99379.77
2023-01-17T18:50:02.779Z,99381.40
2023-01-17T18:52:35.315Z,99381.58
2023-01-17T18:55:06.724Z,99374.32
2023-01-17T18:57:38.414Z,99371.23
2023-01-17T19:00:10.451Z,99369.27
2023-01-17T19:02:41.265Z,99365.48
2023-01-17T19:05:15.090Z,99363.98
2023-01-17T19:07:46.183Z,99361.45
2023-01-17T19:10:19.994Z,99357.33
2023-01-17T19:12:50.861Z,99351.69
2023-01-17T19:15:21.585Z,99347.98
2023-01-17T19:17:52.363Z,99343.91
2023-01-17T19:20:23.211Z,99347.30
2023-01-17T19:22:53.889Z,99349.95
2023-01-17T19:25:25.800Z,99342.61
2023-01-17T19:27:57.517Z,99344.55
2023-01-17T19:30:28.609Z,99343.60
2023-01-17T19:32:59.418Z,99343.75
2023-01-17T19:35:30.453Z,99338.85
2023-01-17T19:38:01.731Z,99331.71
2023-01-17T19:40:32.556Z,99324.73
2023-01-17T19:43:04.600Z,99322.86
2023-01-17T19:45:35.522Z,99323.77
2023-01-17T19:48:06.774Z,99323.66
2023-01-17T19:50:37.593Z,99317.23
2023-01-17T19:53:08.312Z,99318.31
2023-01-17T19:55:42.025Z,99315.52
2023-01-17T19:58:13.296Z,99320.48
2023-01-17T20:00:46.706Z,99327.28
2023-01-17T20:03:17.737Z,99327.85
2023-01-17T20:05:48.528Z,99331.84
2023-01-17T20:08:19.494Z,99332.20
2023-01-17T20:10:50.337Z,99337.27
2023-01-17T20:13:21.070Z,99341.93
2023-01-17T20:15:52.025Z,99349.16
2023-01-17T20:18:22.971Z,99346.19
2023-01-17T20:20:57.661Z,99338.69
2023-01-17T20:23:28.689Z,99337.02
2023-01-17T20:26:00.793Z,99329.36
2023-01-17T20:28:32.038Z,99333.14
2023-01-17T20:31:07.725Z,99335.60
2023-01-17T20:33:38.277Z,99331.14
2023-01-17T20:36:11.147Z,99322.66
2023-01-17T20:38:45.030Z,99323.74
2023-01-17T20:41:17.352Z,99320.86
2023-01-17T20:43:48.843Z,99321.34
2023-01-17T20:46:20.212Z,99315.48
2023-01-17T20:48:51.481Z,99312.34
2023-01-17T20:51:22.932Z,99311.02
2023-01-17T20:53:54.192Z,99312.11
2023-01-17T20:56:25.243Z,99306.22
2023-01-17T20:58:56.175Z,99298.83
2023-01-17T21:01:28.016Z,99291.84
2023-01-17T21:03:59.030Z,99287.24
2023-01-17T21:06:29.956Z,99283.97
2023-01-17T21:09:01.111Z,99283.84
2023-01-17T21:11:32.119Z,99289.79
2023-01-17T21:14:02.983Z,99293.45
2023-01-17T21:16:34.366Z,99290.00
2023-01-17T21:19:05.159Z,99276.08
2023-01-17T21:21:36.068Z,99274.11
2023-01-17T21:24:07.381Z,99270.84
2023-01-17T21:26:40.136Z,99268.20
2023-01-17T21:29:11.117Z,99266.25
2023-01-17T21:31:42.852Z,99265.98
2023-01-17T21:34:13.753Z,99263.98
2023-01-17T21:36:44.733Z,99252.13
2023-01-17T21:39:16.836Z,99249.55
2023-01-17T21:41:48.177Z,99245.84
2023-01-17T21:44:20.448Z,99234.64
2023-01-17T21:46:55.074Z,99233.19
2023-01-17T21:49:26.715Z,99229.71
2023-01-17T21:52:14.792Z,99231.72
2023-01-17T21:55:03.336Z,99231.78
2023-01-17T21:57:51.828Z,99234.64
2023-01-17T22:00:22.837Z,99232.06
2023-01-17T22:02:53.938Z,99228.78
2023-01-17T22:05:24.732Z,99226.67
2023-01-17T22:08:15.009Z,99227.35
2023-01-17T22:10:48.789Z,99224.00
2023-01-17T22:13:19.876Z,99221.27
2023-01-17T22:15:58.479Z,99216.81
2023-01-17T22:18:29.589Z,99213.10
2023-01-17T22:21:04.139Z,99211.31
2023-01-17T22:23:35.155Z,99209.66
2023-01-17T22:26:06.535Z,99199.00
2023-01-17T22:28:37.392Z,99191.88
2023-01-17T22:31:10.810Z,99188.41
2023-01-17T22:33:42.263Z,99188.36
2023-01-17T22:36:13.904Z,99187.94
2023-01-17T22:38:45.086Z,99187.39
2023-01-17T22:41:17.202Z,99186.52
2023-01-17T22:43:48.808Z,99182.95
2023-01-17T22:46:20.064Z,99181.33
2023-01-17T22:48:51.056Z,99173.08
2023-01-17T22:51:22.454Z,99169.61
2023-01-17T22:53:53.674Z,99169.52
2023-01-17T22:56:25.145Z,99167.04
2023-01-17T22:58:55.952Z,99165.22
2023-01-17T23:01:27.205Z,99159.45
2023-01-17T23:03:58.640Z,99159.22
2023-01-17T23:06:30.426Z,99150.80
2023-01-17T23:09:02.539Z,99146.30
2023-01-17T23:11:46.861Z,99143.23
2023-01-17T23:14:18.641Z,99140.20
2023-01-17T23:17:07.233Z,99137.67
2023-01-17T23:19:38.454Z,99143.60
2023-01-17T23:22:20.311Z,99142.23
2023-01-17T23:24:51.903Z,99140.92
2023-01-17T23:27:40.845Z,99142.76
2023-01-17T23:30:13.495Z,99148.01
2023-01-17T23:32:46.296Z,99146.95
2023-01-17T23:35:17.336Z,99149.81
2023-01-17T23:38:05.475Z,99149.11
2023-01-17T23:40:36.798Z,99153.45
2023-01-17T23:43:25.510Z,99157.85
2023-01-17T23:45:56.359Z,99157.58
2023-01-17T23:48:27.428Z,99158.05
2023-01-17T23:50:59.695Z,99154.14
2023-01-17T23:53:30.359Z,99153.54
2023-01-17T23:56:01.160Z,99153.08
2023-01-17T23:58:31.961Z,99160.41
